sensor_id;sensor_type;location;lat;lon;timestamp;P1;durP1;ratioP1;P2;durP2;ratioP2
13202;SDS011;6666;51.626;7.530;2023-10-19T00:00:33;10.00;;;6.90;;
13202;SDS011;6666;51.626;7.530;2023-10-19T00:03:02;11.65;;;6.63;;
13202;SDS011;6666;51.626;7.530;2023-10-19T00:05:33;10.75;;;6.35;;
13202;SDS011;6666;51.626;7.530;2023-10-19T00:08:00;10.07;;;6.78;;
13202;SDS011;6666;51.626;7.530;2023-10-19T00:10:32;10.77;;;6.70;;
13202;SDS011;6666;51.626;7.530;2023-10-19T00:13:01;10.80;;;6.65;;
13202;SDS011;6666;51.626;7.530;2023-10-19T00:15:32;12.43;;;6.68;;
13202;SDS011;6666;51.626;7.530;2023-10-19T00:18:06;10.63;;;6.50;;
13202;SDS011;6666;51.626;7.530;2023-10-19T00:20:48;9.25;;;6.60;;
13202;SDS011;6666;51.626;7.530;2023-10-19T00:23:21;12.13;;;6.47;;
13202;SDS011;6666;51.626;7.530;2023-10-19T00:25:57;11.40;;;6.60;;
13202;SDS011;6666;51.626;7.530;2023-10-19T00:28:32;12.20;;;6.43;;
13202;SDS011;6666;51.626;7.530;2023-10-19T00:31:03;10.60;;;6.57;;
13202;SDS011;6666;51.626;7.530;2023-10-19T00:33:34;11.30;;;6.77;;
13202;SDS011;6666;51.626;7.530;2023-10-19T00:36:05;10.20;;;6.72;;
13202;SDS011;6666;51.626;7.530;2023-10-19T00:38:35;11.18;;;7.30;;
13202;SDS011;6666;51.626;7.530;2023-10-19T00:41:08;10.93;;;6.72;;
13202;SDS011;6666;51.626;7.530;2023-10-19T00:43:45;9.53;;;6.60;;
13202;SDS011;6666;51.626;7.530;2023-10-19T00:46:17;12.55;;;6.85;;
13202;SDS011;6666;51.626;7.530;2023-10-19T00:48:53;12.27;;;6.88;;
13202;SDS011;6666;51.626;7.530;2023-10-19T00:51:23;8.57;;;6.55;;
13202;SDS011;6666;51.626;7.530;2023-10-19T00:54:05;10.68;;;6.72;;
13202;SDS011;6666;51.626;7.530;2023-10-19T00:56:37;11.18;;;6.53;;
13202;SDS011;6666;51.626;7.530;2023-10-19T00:59:07;9.20;;;6.30;;
13202;SDS011;6666;51.626;7.530;2023-10-19T01:01:42;13.02;;;7.15;;
13202;SDS011;6666;51.626;7.530;2023-10-19T01:04:11;9.70;;;6.10;;
13202;SDS011;6666;51.626;7.530;2023-10-19T01:06:42;9.15;;;6.65;;
13202;SDS011;6666;51.626;7.530;2023-10-19T01:09:24;9.32;;;6.90;;
13202;SDS011;6666;51.626;7.530;2023-10-19T01:11:53;11.35;;;6.45;;
13202;SDS011;6666;51.626;7.530;2023-10-19T01:14:22;10.00;;;6.60;;
13202;SDS011;6666;51.626;7.530;2023-10-19T01:16:56;11.37;;;6.70;;
13202;SDS011;6666;51.626;7.530;2023-10-19T01:19:25;9.98;;;6.53;;
13202;SDS011;6666;51.626;7.530;2023-10-19T01:21:53;10.30;;;6.30;;
13202;SDS011;6666;51.626;7.530;2023-10-19T01:24:29;9.97;;;6.37;;
13202;SDS011;6666;51.626;7.530;2023-10-19T01:27:06;11.35;;;6.47;;
13202;SDS011;6666;51.626;7.530;2023-10-19T01:29:36;10.32;;;7.07;;
13202;SDS011;6666;51.626;7.530;2023-10-19T01:32:06;10.45;;;6.88;;
13202;SDS011;6666;51.626;7.530;2023-10-19T01:34:35;10.57;;;7.00;;
13202;SDS011;6666;51.626;7.530;2023-10-19T01:37:03;9.50;;;6.88;;
13202;SDS011;6666;51.626;7.530;2023-10-19T01:39:32;9.35;;;6.18;;
13202;SDS011;6666;51.626;7.530;2023-10-19T01:42:03;9.30;;;6.60;;
13202;SDS011;6666;51.626;7.530;2023-10-19T01:44:31;11.57;;;6.97;;
13202;SDS011;6666;51.626;7.530;2023-10-19T01:47:02;8.00;;;6.20;;
13202;SDS011;6666;51.626;7.530;2023-10-19T01:49:33;8.90;;;6.35;;
13202;SDS011;6666;51.626;7.530;2023-10-19T01:52:00;8.85;;;6.60;;
13202;SDS011;6666;51.626;7.530;2023-10-19T01:54:30;11.07;;;6.65;;
13202;SDS011;6666;51.626;7.530;2023-10-19T01:57:00;11.48;;;7.20;;
13202;SDS011;6666;51.626;7.530;2023-10-19T01:59:29;11.27;;;7.22;;
13202;SDS011;6666;51.626;7.530;2023-10-19T02:01:56;9.88;;;7.00;;
13202;SDS011;6666;51.626;7.530;2023-10-19T02:04:24;10.63;;;6.55;;
13202;SDS011;6666;51.626;7.530;2023-10-19T02:06:52;10.90;;;6.80;;
13202;SDS011;6666;51.626;7.530;2023-10-19T02:09:21;11.13;;;7.30;;
13202;SDS011;6666;51.626;7.530;2023-10-19T02:11:52;10.30;;;7.15;;
13202;SDS011;6666;51.626;7.530;2023-10-19T02:14:24;11.15;;;7.30;;
13202;SDS011;6666;51.626;7.530;2023-10-19T02:16:55;11.20;;;7.20;;
13202;SDS011;6666;51.626;7.530;2023-10-19T02:19:24;9.17;;;7.00;;
13202;SDS011;6666;51.626;7.530;2023-10-19T02:21:53;13.95;;;7.95;;
13202;SDS011;6666;51.626;7.530;2023-10-19T02:24:22;13.07;;;7.13;;
13202;SDS011;6666;51.626;7.530;2023-10-19T02:26:53;12.38;;;7.50;;
13202;SDS011;6666;51.626;7.530;2023-10-19T02:29:22;12.38;;;7.72;;
13202;SDS011;6666;51.626;7.530;2023-10-19T02:31:53;11.20;;;7.73;;
13202;SDS011;6666;51.626;7.530;2023-10-19T02:34:21;10.30;;;7.45;;
13202;SDS011;6666;51.626;7.530;2023-10-19T02:36:49;10.63;;;7.60;;
13202;SDS011;6666;51.626;7.530;2023-10-19T02:39:18;11.13;;;7.07;;
13202;SDS011;6666;51.626;7.530;2023-10-19T02:41:45;11.70;;;7.97;;
13202;SDS011;6666;51.626;7.530;2023-10-19T02:44:17;10.80;;;6.95;;
13202;SDS011;6666;51.626;7.530;2023-10-19T02:46:49;11.07;;;7.20;;
13202;SDS011;6666;51.626;7.530;2023-10-19T02:49:21;8.50;;;6.97;;
13202;SDS011;6666;51.626;7.530;2023-10-19T02:51:50;11.20;;;6.88;;
13202;SDS011;6666;51.626;7.530;2023-10-19T02:54:19;9.65;;;7.45;;
13202;SDS011;6666;51.626;7.530;2023-10-19T02:56:49;11.02;;;6.80;;
13202;SDS011;6666;51.626;7.530;2023-10-19T02:59:21;11.15;;;7.18;;
13202;SDS011;6666;51.626;7.530;2023-10-19T03:01:50;10.93;;;7.03;;
13202;SDS011;6666;51.626;7.530;2023-10-19T03:04:20;9.05;;;6.90;;
13202;SDS011;6666;51.626;7.530;2023-10-19T03:06:48;9.93;;;6.82;;
13202;SDS011;6666;51.626;7.530;2023-10-19T03:09:16;10.57;;;7.18;;
13202;SDS011;6666;51.626;7.530;2023-10-19T03:11:49;13.43;;;7.40;;
13202;SDS011;6666;51.626;7.530;2023-10-19T03:14:21;10.60;;;7.40;;
13202;SDS011;6666;51.626;7.530;2023-10-19T03:16:51;11.52;;;7.90;;
13202;SDS011;6666;51.626;7.530;2023-10-19T03:19:19;8.43;;;7.40;;
13202;SDS011;6666;51.626;7.530;2023-10-19T03:21:47;12.00;;;7.40;;
13202;SDS011;6666;51.626;7.530;2023-10-19T03:24:15;11.50;;;7.45;;
13202;SDS011;6666;51.626;7.530;2023-10-19T03:27:02;10.98;;;8.00;;
13202;SDS011;6666;51.626;7.530;2023-10-19T03:29:36;11.77;;;7.75;;
13202;SDS011;6666;51.626;7.530;2023-10-19T03:32:06;8.00;;;6.90;;
13202;SDS011;6666;51.626;7.530;2023-10-19T03:34:35;10.23;;;7.70;;
13202;SDS011;6666;51.626;7.530;2023-10-19T03:37:06;11.50;;;7.15;;
13202;SDS011;6666;51.626;7.530;2023-10-19T03:39:38;9.55;;;7.07;;
13202;SDS011;6666;51.626;7.530;2023-10-19T03:42:07;10.88;;;7.88;;
13202;SDS011;6666;51.626;7.530;2023-10-19T03:44:37;8.77;;;7.00;;
13202;SDS011;6666;51.626;7.530;2023-10-19T03:47:12;11.63;;;7.10;;
13202;SDS011;6666;51.626;7.530;2023-10-19T03:49:41;9.40;;;6.88;;
13202;SDS011;6666;51.626;7.530;2023-10-19T03:52:10;9.10;;;7.37;;
13202;SDS011;6666;51.626;7.530;2023-10-19T03:54:50;9.55;;;6.80;;
13202;SDS011;6666;51.626;7.530;2023-10-19T03:57:18;8.95;;;6.80;;
13202;SDS011;6666;51.626;7.530;2023-10-19T03:59:51;8.73;;;6.88;;
13202;SDS011;6666;51.626;7.530;2023-10-19T04:02:23;11.03;;;7.20;;
13202;SDS011;6666;51.626;7.530;2023-10-19T04:04:52;8.98;;;6.18;;
13202;SDS011;6666;51.626;7.530;2023-10-19T04:07:22;9.98;;;6.65;;
13202;SDS011;6666;51.626;7.530;2023-10-19T04:09:52;9.00;;;5.90;;
13202;SDS011;6666;51.626;7.530;2023-10-19T04:12:27;7.67;;;5.73;;
13202;SDS011;6666;51.626;7.530;2023-10-19T04:14:59;9.00;;;5.90;;
13202;SDS011;6666;51.626;7.530;2023-10-19T04:17:36;7.40;;;5.50;;
13202;SDS011;6666;51.626;7.530;2023-10-19T04:20:05;8.88;;;5.57;;
13202;SDS011;6666;51.626;7.530;2023-10-19T04:22:53;7.50;;;5.47;;
13202;SDS011;6666;51.626;7.530;2023-10-19T04:25:21;8.00;;;5.43;;
13202;SDS011;6666;51.626;7.530;2023-10-19T04:27:52;7.47;;;5.30;;
13202;SDS011;6666;51.626;7.530;2023-10-19T04:30:24;6.38;;;4.53;;
13202;SDS011;6666;51.626;7.530;2023-10-19T04:32:53;8.73;;;5.50;;
13202;SDS011;6666;51.626;7.530;2023-10-19T04:35:25;9.60;;;5.38;;
13202;SDS011;6666;51.626;7.530;2023-10-19T04:37:57;7.40;;;5.10;;
13202;SDS011;6666;51.626;7.530;2023-10-19T04:40:32;8.40;;;5.28;;
13202;SDS011;6666;51.626;7.530;2023-10-19T04:43:02;7.65;;;5.50;;
13202;SDS011;6666;51.626;7.530;2023-10-19T04:45:32;9.65;;;4.93;;
13202;SDS011;6666;51.626;7.530;2023-10-19T04:48:01;10.52;;;5.25;;
13202;SDS011;6666;51.626;7.530;2023-10-19T04:50:32;10.90;;;5.68;;
13202;SDS011;6666;51.626;7.530;2023-10-19T04:53:02;6.28;;;4.70;;
13202;SDS011;6666;51.626;7.530;2023-10-19T04:55:30;11.50;;;7.10;;
13202;SDS011;6666;51.626;7.530;2023-10-19T04:57:58;7.38;;;5.78;;
13202;SDS011;6666;51.626;7.530;2023-10-19T05:00:26;8.65;;;5.50;;
13202;SDS011;6666;51.626;7.530;2023-10-19T05:02:56;10.25;;;6.00;;
13202;SDS011;6666;51.626;7.530;2023-10-19T05:05:24;7.97;;;6.05;;
13202;SDS011;6666;51.626;7.530;2023-10-19T05:07:52;8.20;;;6.20;;
13202;SDS011;6666;51.626;7.530;2023-10-19T05:10:20;7.50;;;5.47;;
13202;SDS011;6666;51.626;7.530;2023-10-19T05:12:48;7.20;;;5.57;;
13202;SDS011;6666;51.626;7.530;2023-10-19T05:15:17;8.23;;;5.78;;
13202;SDS011;6666;51.626;7.530;2023-10-19T05:17:45;8.60;;;5.00;;
13202;SDS011;6666;51.626;7.530;2023-10-19T05:20:15;8.40;;;5.30;;
13202;SDS011;6666;51.626;7.530;2023-10-19T05:22:43;8.10;;;5.10;;
13202;SDS011;6666;51.626;7.530;2023-10-19T05:25:11;8.40;;;5.47;;
13202;SDS011;6666;51.626;7.530;2023-10-19T05:27:39;7.18;;;5.40;;
13202;SDS011;6666;51.626;7.530;2023-10-19T05:30:09;8.98;;;5.55;;
13202;SDS011;6666;51.626;7.530;2023-10-19T05:32:37;7.25;;;4.68;;
13202;SDS011;6666;51.626;7.530;2023-10-19T05:35:06;6.20;;;4.70;;
13202;SDS011;6666;51.626;7.530;2023-10-19T05:37:41;8.73;;;4.85;;
13202;SDS011;6666;51.626;7.530;2023-10-19T05:40:09;7.50;;;4.20;;
13202;SDS011;6666;51.626;7.530;2023-10-19T05:42:41;12.60;;;4.73;;
13202;SDS011;6666;51.626;7.530;2023-10-19T05:45:09;13.43;;;8.30;;
13202;SDS011;6666;51.626;7.530;2023-10-19T05:47:39;9.80;;;7.80;;
13202;SDS011;6666;51.626;7.530;2023-10-19T05:50:08;11.40;;;6.60;;
13202;SDS011;6666;51.626;7.530;2023-10-19T05:52:41;7.80;;;5.63;;
13202;SDS011;6666;51.626;7.530;2023-10-19T05:55:10;8.88;;;6.30;;
13202;SDS011;6666;51.626;7.530;2023-10-19T05:57:41;9.52;;;6.50;;
13202;SDS011;6666;51.626;7.530;2023-10-19T06:00:10;11.85;;;6.95;;
13202;SDS011;6666;51.626;7.530;2023-10-19T06:02:42;9.40;;;6.85;;
13202;SDS011;6666;51.626;7.530;2023-10-19T06:05:12;8.85;;;5.57;;
13202;SDS011;6666;51.626;7.530;2023-10-19T06:07:44;9.48;;;4.97;;
13202;SDS011;6666;51.626;7.530;2023-10-19T06:10:13;5.87;;;4.43;;
13202;SDS011;6666;51.626;7.530;2023-10-19T06:12:47;7.60;;;4.45;;
13202;SDS011;6666;51.626;7.530;2023-10-19T06:15:16;9.80;;;5.13;;
13202;SDS011;6666;51.626;7.530;2023-10-19T06:17:47;5.57;;;4.97;;
13202;SDS011;6666;51.626;7.530;2023-10-19T06:20:16;8.90;;;5.20;;
13202;SDS011;6666;51.626;7.530;2023-10-19T06:22:55;9.77;;;5.35;;
13202;SDS011;6666;51.626;7.530;2023-10-19T06:25:30;9.05;;;6.50;;
13202;SDS011;6666;51.626;7.530;2023-10-19T06:28:01;8.60;;;5.88;;
13202;SDS011;6666;51.626;7.530;2023-10-19T06:30:30;7.40;;;5.90;;
13202;SDS011;6666;51.626;7.530;2023-10-19T06:32:58;9.77;;;5.30;;
13202;SDS011;6666;51.626;7.530;2023-10-19T06:35:29;10.07;;;6.50;;
13202;SDS011;6666;51.626;7.530;2023-10-19T06:38:00;9.80;;;6.20;;
13202;SDS011;6666;51.626;7.530;2023-10-19T06:40:30;9.90;;;5.57;;
13202;SDS011;6666;51.626;7.530;2023-10-19T06:43:01;6.93;;;5.28;;
13202;SDS011;6666;51.626;7.530;2023-10-19T06:45:31;5.50;;;4.75;;
13202;SDS011;6666;51.626;7.530;2023-10-19T06:48:00;6.35;;;5.47;;
13202;SDS011;6666;51.626;7.530;2023-10-19T06:50:28;7.35;;;5.20;;
13202;SDS011;6666;51.626;7.530;2023-10-19T06:52:58;6.40;;;4.90;;
13202;SDS011;6666;51.626;7.530;2023-10-19T06:55:30;7.47;;;5.05;;
13202;SDS011;6666;51.626;7.530;2023-10-19T06:57:59;7.85;;;5.10;;
13202;SDS011;6666;51.626;7.530;2023-10-19T07:00:27;7.22;;;5.15;;
13202;SDS011;6666;51.626;7.530;2023-10-19T07:02:56;6.22;;;4.90;;
13202;SDS011;6666;51.626;7.530;2023-10-19T07:05:27;8.32;;;5.40;;
13202;SDS011;6666;51.626;7.530;2023-10-19T07:07:57;10.57;;;5.93;;
13202;SDS011;6666;51.626;7.530;2023-10-19T07:10:28;7.80;;;5.70;;
13202;SDS011;6666;51.626;7.530;2023-10-19T07:12:56;9.70;;;6.55;;
13202;SDS011;6666;51.626;7.530;2023-10-19T07:15:25;10.70;;;6.65;;
13202;SDS011;6666;51.626;7.530;2023-10-19T07:17:56;10.25;;;5.90;;
13202;SDS011;6666;51.626;7.530;2023-10-19T07:20:25;7.93;;;6.13;;
13202;SDS011;6666;51.626;7.530;2023-10-19T07:22:55;10.48;;;6.53;;
13202;SDS011;6666;51.626;7.530;2023-10-19T07:25:27;9.85;;;6.05;;
13202;SDS011;6666;51.626;7.530;2023-10-19T07:27:55;11.23;;;7.22;;
13202;SDS011;6666;51.626;7.530;2023-10-19T07:30:26;11.75;;;7.72;;
13202;SDS011;6666;51.626;7.530;2023-10-19T07:32:54;12.02;;;7.35;;
13202;SDS011;6666;51.626;7.530;2023-10-19T07:35:25;12.40;;;8.18;;
13202;SDS011;6666;51.626;7.530;2023-10-19T07:37:54;10.20;;;7.03;;
13202;SDS011;6666;51.626;7.530;2023-10-19T07:40:23;10.32;;;6.90;;
13202;SDS011;6666;51.626;7.530;2023-10-19T07:42:53;12.32;;;6.72;;
13202;SDS011;6666;51.626;7.530;2023-10-19T07:45:21;10.88;;;6.80;;
13202;SDS011;6666;51.626;7.530;2023-10-19T07:47:50;8.57;;;6.30;;
13202;SDS011;6666;51.626;7.530;2023-10-19T07:50:18;10.52;;;6.68;;
13202;SDS011;6666;51.626;7.530;2023-10-19T07:52:49;11.38;;;5.80;;
13202;SDS011;6666;51.626;7.530;2023-10-19T07:55:18;9.07;;;6.00;;
13202;SDS011;6666;51.626;7.530;2023-10-19T07:57:49;13.27;;;6.60;;
13202;SDS011;6666;51.626;7.530;2023-10-19T08:00:20;8.82;;;5.63;;
13202;SDS011;6666;51.626;7.530;2023-10-19T08:02:50;10.05;;;5.43;;
13202;SDS011;6666;51.626;7.530;2023-10-19T08:05:20;7.83;;;5.60;;
13202;SDS011;6666;51.626;7.530;2023-10-19T08:07:48;8.67;;;5.50;;
13202;SDS011;6666;51.626;7.530;2023-10-19T08:10:17;9.82;;;5.70;;
13202;SDS011;6666;51.626;7.530;2023-10-19T08:12:47;8.48;;;5.90;;
13202;SDS011;6666;51.626;7.530;2023-10-19T08:15:16;9.80;;;5.70;;
13202;SDS011;6666;51.626;7.530;2023-10-19T08:17:47;9.10;;;5.90;;
13202;SDS011;6666;51.626;7.530;2023-10-19T08:20:16;10.40;;;5.55;;
13202;SDS011;6666;51.626;7.530;2023-10-19T08:22:50;7.55;;;5.80;;
13202;SDS011;6666;51.626;7.530;2023-10-19T08:25:19;8.80;;;5.47;;
13202;SDS011;6666;51.626;7.530;2023-10-19T08:27:48;10.07;;;5.50;;
13202;SDS011;6666;51.626;7.530;2023-10-19T08:30:20;9.45;;;6.10;;
13202;SDS011;6666;51.626;7.530;2023-10-19T08:32:53;7.75;;;6.03;;
13202;SDS011;6666;51.626;7.530;2023-10-19T08:35:23;8.40;;;6.10;;
13202;SDS011;6666;51.626;7.530;2023-10-19T08:37:52;12.10;;;6.32;;
13202;SDS011;6666;51.626;7.530;2023-10-19T08:40:22;7.75;;;5.78;;
13202;SDS011;6666;51.626;7.530;2023-10-19T08:42:53;14.25;;;6.85;;
13202;SDS011;6666;51.626;7.530;2023-10-19T08:45:23;10.82;;;6.60;;
13202;SDS011;6666;51.626;7.530;2023-10-19T08:47:53;9.05;;;6.00;;
13202;SDS011;6666;51.626;7.530;2023-10-19T08:50:23;8.70;;;5.85;;
13202;SDS011;6666;51.626;7.530;2023-10-19T08:52:53;8.48;;;6.10;;
13202;SDS011;6666;51.626;7.530;2023-10-19T08:55:22;9.32;;;6.45;;
13202;SDS011;6666;51.626;7.530;2023-10-19T08:58:11;13.00;;;7.20;;
13202;SDS011;6666;51.626;7.530;2023-10-19T09:00:46;13.25;;;7.50;;
13202;SDS011;6666;51.626;7.530;2023-10-19T09:03:16;11.73;;;7.43;;
13202;SDS011;6666;51.626;7.530;2023-10-19T09:05:44;16.05;;;8.73;;
13202;SDS011;6666;51.626;7.530;2023-10-19T09:08:14;11.95;;;8.55;;
13202;SDS011;6666;51.626;7.530;2023-10-19T09:10:44;16.43;;;9.27;;
13202;SDS011;6666;51.626;7.530;2023-10-19T09:13:13;14.32;;;8.15;;
13202;SDS011;6666;51.626;7.530;2023-10-19T09:15:46;15.02;;;8.10;;
13202;SDS011;6666;51.626;7.530;2023-10-19T09:18:16;12.80;;;6.53;;
13202;SDS011;6666;51.626;7.530;2023-10-19T09:20:46;15.02;;;6.40;;
13202;SDS011;6666;51.626;7.530;2023-10-19T09:23:23;10.03;;;5.60;;
13202;SDS011;6666;51.626;7.530;2023-10-19T09:25:55;7.87;;;5.77;;
13202;SDS011;6666;51.626;7.530;2023-10-19T09:28:24;9.53;;;5.27;;
13202;SDS011;6666;51.626;7.530;2023-10-19T09:30:54;7.18;;;4.63;;
13202;SDS011;6666;51.626;7.530;2023-10-19T09:33:23;11.40;;;5.45;;
13202;SDS011;6666;51.626;7.530;2023-10-19T09:35:52;6.32;;;4.68;;
13202;SDS011;6666;51.626;7.530;2023-10-19T09:38:23;6.60;;;4.70;;
13202;SDS011;6666;51.626;7.530;2023-10-19T09:40:53;7.68;;;4.40;;
13202;SDS011;6666;51.626;7.530;2023-10-19T09:43:24;8.70;;;4.68;;
13202;SDS011;6666;51.626;7.530;2023-10-19T09:46:04;8.02;;;4.88;;
13202;SDS011;6666;51.626;7.530;2023-10-19T09:48:35;11.30;;;5.60;;
13202;SDS011;6666;51.626;7.530;2023-10-19T09:51:08;10.75;;;5.50;;
13202;SDS011;6666;51.626;7.530;2023-10-19T09:53:40;14.00;;;5.95;;
13202;SDS011;6666;51.626;7.530;2023-10-19T09:56:12;11.38;;;6.45;;
13202;SDS011;6666;51.626;7.530;2023-10-19T09:58:48;11.98;;;7.00;;
13202;SDS011;6666;51.626;7.530;2023-10-19T10:01:21;13.13;;;5.93;;
13202;SDS011;6666;51.626;7.530;2023-10-19T10:03:50;8.65;;;5.97;;
13202;SDS011;6666;51.626;7.530;2023-10-19T10:06:27;10.82;;;6.50;;
13202;SDS011;6666;51.626;7.530;2023-10-19T10:08:56;9.93;;;6.20;;
13202;SDS011;6666;51.626;7.530;2023-10-19T10:11:29;9.13;;;5.50;;
13202;SDS011;6666;51.626;7.530;2023-10-19T10:13:59;10.63;;;5.50;;
13202;SDS011;6666;51.626;7.530;2023-10-19T10:16:30;13.03;;;4.90;;
13202;SDS011;6666;51.626;7.530;2023-10-19T10:19:02;10.82;;;4.60;;
13202;SDS011;6666;51.626;7.530;2023-10-19T10:21:32;8.10;;;3.97;;
13202;SDS011;6666;51.626;7.530;2023-10-19T10:24:24;9.30;;;3.90;;
13202;SDS011;6666;51.626;7.530;2023-10-19T10:26:57;5.85;;;3.70;;
13202;SDS011;6666;51.626;7.530;2023-10-19T10:29:26;8.75;;;4.70;;
13202;SDS011;6666;51.626;7.530;2023-10-19T10:31:56;9.50;;;4.43;;
13202;SDS011;6666;51.626;7.530;2023-10-19T10:34:41;9.70;;;4.35;;
13202;SDS011;6666;51.626;7.530;2023-10-19T10:37:11;8.10;;;4.30;;
13202;SDS011;6666;51.626;7.530;2023-10-19T10:39:40;6.10;;;3.40;;
13202;SDS011;6666;51.626;7.530;2023-10-19T10:42:11;5.23;;;3.10;;
13202;SDS011;6666;51.626;7.530;2023-10-19T10:44:42;5.77;;;3.20;;
13202;SDS011;6666;51.626;7.530;2023-10-19T10:47:15;5.17;;;3.07;;
13202;SDS011;6666;51.626;7.530;2023-10-19T10:49:47;4.15;;;2.55;;
13202;SDS011;6666;51.626;7.530;2023-10-19T10:52:23;4.00;;;2.60;;
13202;SDS011;6666;51.626;7.530;2023-10-19T10:54:56;5.32;;;2.70;;
13202;SDS011;6666;51.626;7.530;2023-10-19T10:57:29;6.85;;;2.70;;
13202;SDS011;6666;51.626;7.530;2023-10-19T11:00:03;5.32;;;2.13;;
13202;SDS011;6666;51.626;7.530;2023-10-19T11:02:35;9.40;;;2.70;;
13202;SDS011;6666;51.626;7.530;2023-10-19T11:05:10;3.88;;;2.00;;
13202;SDS011;6666;51.626;7.530;2023-10-19T11:07:39;5.10;;;2.22;;
13202;SDS011;6666;51.626;7.530;2023-10-19T11:10:08;2.88;;;1.98;;
13202;SDS011;6666;51.626;7.530;2023-10-19T11:12:37;7.70;;;2.90;;
13202;SDS011;6666;51.626;7.530;2023-10-19T11:15:05;7.28;;;2.40;;
13202;SDS011;6666;51.626;7.530;2023-10-19T11:17:43;6.53;;;2.60;;
13202;SDS011;6666;51.626;7.530;2023-10-19T11:20:20;6.97;;;2.47;;
13202;SDS011;6666;51.626;7.530;2023-10-19T11:22:49;3.58;;;1.90;;
13202;SDS011;6666;51.626;7.530;2023-10-19T11:25:18;5.93;;;2.45;;
13202;SDS011;6666;51.626;7.530;2023-10-19T11:27:47;6.07;;;1.90;;
13202;SDS011;6666;51.626;7.530;2023-10-19T11:30:22;5.72;;;2.10;;
13202;SDS011;6666;51.626;7.530;2023-10-19T11:32:52;4.87;;;1.90;;
13202;SDS011;6666;51.626;7.530;2023-10-19T11:35:24;5.43;;;1.80;;
13202;SDS011;6666;51.626;7.530;2023-10-19T11:37:54;5.60;;;2.20;;
13202;SDS011;6666;51.626;7.530;2023-10-19T11:40:23;4.25;;;2.00;;
13202;SDS011;6666;51.626;7.530;2023-10-19T11:42:52;7.03;;;2.40;;
13202;SDS011;6666;51.626;7.530;2023-10-19T11:45:22;6.75;;;1.85;;
13202;SDS011;6666;51.626;7.530;2023-10-19T11:47:50;5.55;;;2.00;;
13202;SDS011;6666;51.626;7.530;2023-10-19T11:50:21;5.22;;;1.83;;
13202;SDS011;6666;51.626;7.530;2023-10-19T11:52:51;5.27;;;1.70;;
13202;SDS011;6666;51.626;7.530;2023-10-19T11:55:20;6.38;;;1.60;;
13202;SDS011;6666;51.626;7.530;2023-10-19T11:57:48;2.00;;;1.10;;
13202;SDS011;6666;51.626;7.530;2023-10-19T12:00:16;5.53;;;1.60;;
13202;SDS011;6666;51.626;7.530;2023-10-19T12:02:48;4.20;;;1.65;;
13202;SDS011;6666;51.626;7.530;2023-10-19T12:05:20;8.07;;;2.10;;
13202;SDS011;6666;51.626;7.530;2023-10-19T12:07:50;3.97;;;1.95;;
13202;SDS011;6666;51.626;7.530;2023-10-19T12:10:18;4.47;;;1.50;;
13202;SDS011;6666;51.626;7.530;2023-10-19T12:12:52;12.27;;;1.85;;
13202;SDS011;6666;51.626;7.530;2023-10-19T12:15:27;6.20;;;1.92;;
13202;SDS011;6666;51.626;7.530;2023-10-19T12:17:57;6.47;;;1.60;;
13202;SDS011;6666;51.626;7.530;2023-10-19T12:20:27;7.35;;;2.20;;
13202;SDS011;6666;51.626;7.530;2023-10-19T12:22:57;9.67;;;1.80;;
13202;SDS011;6666;51.626;7.530;2023-10-19T12:25:28;5.00;;;1.73;;
13202;SDS011;6666;51.626;7.530;2023-10-19T12:28:05;7.03;;;1.67;;
13202;SDS011;6666;51.626;7.530;2023-10-19T12:30:33;4.35;;;1.70;;
13202;SDS011;6666;51.626;7.530;2023-10-19T12:33:04;8.27;;;1.75;;
13202;SDS011;6666;51.626;7.530;2023-10-19T12:35:35;9.10;;;1.90;;
13202;SDS011;6666;51.626;7.530;2023-10-19T12:38:14;7.93;;;1.20;;
13202;SDS011;6666;51.626;7.530;2023-10-19T12:40:43;5.45;;;1.60;;
13202;SDS011;6666;51.626;7.530;2023-10-19T12:43:12;6.03;;;1.30;;
13202;SDS011;6666;51.626;7.530;2023-10-19T12:45:41;5.75;;;1.30;;
13202;SDS011;6666;51.626;7.530;2023-10-19T12:48:10;6.40;;;1.40;;
13202;SDS011;6666;51.626;7.530;2023-10-19T12:50:40;5.63;;;1.48;;
13202;SDS011;6666;51.626;7.530;2023-10-19T12:53:08;7.55;;;1.50;;
13202;SDS011;6666;51.626;7.530;2023-10-19T12:55:37;8.25;;;1.67;;
13202;SDS011;6666;51.626;7.530;2023-10-19T12:58:06;8.88;;;1.95;;
13202;SDS011;6666;51.626;7.530;2023-10-19T13:00:37;5.40;;;2.03;;
13202;SDS011;6666;51.626;7.530;2023-10-19T13:03:10;7.28;;;1.90;;
13202;SDS011;6666;51.626;7.530;2023-10-19T13:05:44;6.35;;;1.40;;
13202;SDS011;6666;51.626;7.530;2023-10-19T13:08:13;6.40;;;1.43;;
13202;SDS011;6666;51.626;7.530;2023-10-19T13:10:43;4.70;;;1.95;;
13202;SDS011;6666;51.626;7.530;2023-10-19T13:13:15;5.22;;;1.80;;
13202;SDS011;6666;51.626;7.530;2023-10-19T13:15:43;9.55;;;1.88;;
13202;SDS011;6666;51.626;7.530;2023-10-19T13:18:14;6.00;;;1.92;;
13202;SDS011;6666;51.626;7.530;2023-10-19T13:20:47;4.60;;;1.90;;
13202;SDS011;6666;51.626;7.530;2023-10-19T13:23:16;7.10;;;2.40;;
13202;SDS011;6666;51.626;7.530;2023-10-19T13:25:48;5.15;;;1.88;;
13202;SDS011;6666;51.626;7.530;2023-10-19T13:28:20;6.32;;;1.60;;
13202;SDS011;6666;51.626;7.530;2023-10-19T13:30:49;7.07;;;2.00;;
13202;SDS011;6666;51.626;7.530;2023-10-19T13:33:20;3.78;;;1.77;;
13202;SDS011;6666;51.626;7.530;2023-10-19T13:35:52;5.00;;;2.10;;
13202;SDS011;6666;51.626;7.530;2023-10-19T13:38:20;6.28;;;2.10;;
13202;SDS011;6666;51.626;7.530;2023-10-19T13:40:48;6.10;;;1.80;;
13202;SDS011;6666;51.626;7.530;2023-10-19T13:43:18;6.13;;;2.00;;
13202;SDS011;6666;51.626;7.530;2023-10-19T13:45:46;6.83;;;1.70;;
13202;SDS011;6666;51.626;7.530;2023-10-19T13:48:15;8.68;;;2.50;;
13202;SDS011;6666;51.626;7.530;2023-10-19T13:50:44;9.88;;;4.47;;
13202;SDS011;6666;51.626;7.530;2023-10-19T13:53:16;7.20;;;2.63;;
13202;SDS011;6666;51.626;7.530;2023-10-19T13:55:45;7.35;;;3.60;;
13202;SDS011;6666;51.626;7.530;2023-10-19T13:58:13;10.65;;;6.53;;
13202;SDS011;6666;51.626;7.530;2023-10-19T14:00:42;15.20;;;9.88;;
13202;SDS011;6666;51.626;7.530;2023-10-19T14:03:11;9.05;;;3.50;;
13202;SDS011;6666;51.626;7.530;2023-10-19T14:05:41;11.82;;;5.80;;
13202;SDS011;6666;51.626;7.530;2023-10-19T14:08:15;10.85;;;6.13;;
13202;SDS011;6666;51.626;7.530;2023-10-19T14:10:46;7.82;;;2.95;;
13202;SDS011;6666;51.626;7.530;2023-10-19T14:13:15;7.80;;;3.40;;
13202;SDS011;6666;51.626;7.530;2023-10-19T14:15:43;8.63;;;4.47;;
13202;SDS011;6666;51.626;7.530;2023-10-19T14:18:11;19.50;;;10.82;;
13202;SDS011;6666;51.626;7.530;2023-10-19T14:20:39;10.18;;;4.13;;
13202;SDS011;6666;51.626;7.530;2023-10-19T14:23:08;5.82;;;2.83;;
13202;SDS011;6666;51.626;7.530;2023-10-19T14:25:38;10.50;;;4.97;;
13202;SDS011;6666;51.626;7.530;2023-10-19T14:28:08;10.03;;;5.83;;
13202;SDS011;6666;51.626;7.530;2023-10-19T14:30:37;8.10;;;3.90;;
13202;SDS011;6666;51.626;7.530;2023-10-19T14:33:05;9.05;;;4.78;;
13202;SDS011;6666;51.626;7.530;2023-10-19T14:35:37;10.32;;;4.60;;
13202;SDS011;6666;51.626;7.530;2023-10-19T14:38:09;18.63;;;11.15;;
13202;SDS011;6666;51.626;7.530;2023-10-19T14:40:41;19.35;;;12.82;;
13202;SDS011;6666;51.626;7.530;2023-10-19T14:43:14;8.05;;;3.00;;
13202;SDS011;6666;51.626;7.530;2023-10-19T14:45:42;6.95;;;3.15;;
13202;SDS011;6666;51.626;7.530;2023-10-19T14:48:10;6.20;;;2.70;;
13202;SDS011;6666;51.626;7.530;2023-10-19T14:50:39;6.50;;;2.80;;
13202;SDS011;6666;51.626;7.530;2023-10-19T14:53:08;17.00;;;9.87;;
13202;SDS011;6666;51.626;7.530;2023-10-19T14:55:36;10.00;;;3.92;;
13202;SDS011;6666;51.626;7.530;2023-10-19T14:58:06;11.18;;;3.22;;
13202;SDS011;6666;51.626;7.530;2023-10-19T15:00:34;5.18;;;2.38;;
13202;SDS011;6666;51.626;7.530;2023-10-19T15:03:04;8.40;;;2.42;;
13202;SDS011;6666;51.626;7.530;2023-10-19T15:05:35;9.60;;;2.40;;
13202;SDS011;6666;51.626;7.530;2023-10-19T15:08:04;6.70;;;2.40;;
13202;SDS011;6666;51.626;7.530;2023-10-19T15:10:35;7.82;;;2.35;;
13202;SDS011;6666;51.626;7.530;2023-10-19T15:13:09;9.32;;;2.30;;
13202;SDS011;6666;51.626;7.530;2023-10-19T15:15:37;5.68;;;2.20;;